createdAt,value
2019-04-14T00:00:36.956Z,6.4
2019-04-14T00:03:01.659Z,6.6
2019-04-14T00:04:14.029Z,7.2
2019-04-14T00:05:26.524Z,8.1
2019-04-14T00:07:51.081Z,8.6
2019-04-14T00:09:03.447Z,8.7
2019-04-14T00:10:15.784Z,8.3
2019-04-14T00:11:28.140Z,7.8
2019-04-14T00:12:40.495Z,7.9
2019-04-14T00:13:52.847Z,8.3
2019-04-14T00:15:05.204Z,7.7
2019-04-14T00:17:29.911Z,8
2019-04-14T00:18:42.257Z,7.7
2019-04-14T00:19:54.623Z,7.6
2019-04-14T00:23:31.067Z,7.8
2019-04-14T00:24:44.035Z,7.7
2019-04-14T00:27:08.074Z,7.1
2019-04-14T00:28:21.096Z,7.6
2019-04-14T00:29:33.462Z,7.3
2019-04-14T00:31:58.155Z,6.9
2019-04-14T00:33:10.510Z,7.5
2019-04-14T00:34:22.861Z,7.5
2019-04-14T00:36:47.578Z,7.1
2019-04-14T00:37:59.930Z,7.8
2019-04-14T00:39:12.284Z,7.1
2019-04-14T00:40:24.650Z,7.6
2019-04-14T00:41:36.997Z,7.1
2019-04-14T00:42:49.343Z,7.1
2019-04-14T00:44:01.695Z,7.8
2019-04-14T00:46:26.404Z,6.9
2019-04-14T00:47:38.758Z,6.8
2019-04-14T00:48:51.113Z,7.1
2019-04-14T00:51:15.823Z,7.1
2019-04-14T00:52:28.178Z,6.9
2019-04-14T00:53:40.533Z,7
2019-04-14T00:56:05.243Z,6.7
2019-04-14T00:57:17.594Z,7.3
2019-04-14T00:58:29.094Z,6.8
2019-04-14T00:59:42.304Z,7.3
2019-04-14T01:00:54.649Z,7.8
2019-04-14T01:02:07.010Z,7.2
2019-04-14T01:03:19.365Z,6.2
2019-04-14T01:05:44.098Z,6.8
2019-04-14T01:06:56.426Z,7.2
2019-04-14T01:08:08.774Z,6.6
2019-04-14T01:09:21.136Z,7
2019-04-14T01:10:33.483Z,7
2019-04-14T01:11:45.851Z,6.6
2019-04-14T01:12:58.204Z,6.5
2019-04-14T01:14:10.551Z,7.2
2019-04-14T01:15:22.912Z,7.1
2019-04-14T01:16:35.282Z,6.8
2019-04-14T01:17:47.613Z,6.6
2019-04-14T01:18:59.096Z,6.7
2019-04-14T01:20:12.033Z,6.6
2019-04-14T01:21:24.679Z,7.1
2019-04-14T01:22:37.037Z,6.9
2019-04-14T01:25:01.750Z,6.8
2019-04-14T01:26:14.100Z,6.3
2019-04-14T01:29:51.174Z,7.2
2019-04-14T01:31:03.527Z,6.7
2019-04-14T01:32:15.881Z,6.8
2019-04-14T01:34:40.596Z,6.6
2019-04-14T01:35:52.095Z,6.6
2019-04-14T01:37:05.300Z,6.1
2019-04-14T01:39:30.017Z,6.5
2019-04-14T01:40:42.373Z,6.2
2019-04-14T01:41:54.734Z,6.2
2019-04-14T01:43:07.085Z,6.5
2019-04-14T01:44:19.444Z,6.6
2019-04-14T01:45:31.811Z,6.7
2019-04-14T01:46:44.148Z,6.9
2019-04-14T01:49:08.875Z,6.7
2019-04-14T01:50:21.225Z,6.4
2019-04-14T01:51:33.580Z,6.4
2019-04-14T01:53:58.286Z,6.2
2019-04-14T01:55:10.644Z,6
2019-04-14T01:56:23.004Z,7
2019-04-14T01:58:47.007Z,6.4
2019-04-14T02:00:00.072Z,6.3
2019-04-14T02:01:12.042Z,6.1
2019-04-14T02:03:37.138Z,6.1
2019-04-14T02:04:49.502Z,6
2019-04-14T02:06:01.847Z,6.4
2019-04-14T02:07:14.201Z,6.4
2019-04-14T02:08:26.556Z,6.7
2019-04-14T02:09:38.913Z,6.4
2019-04-14T02:10:51.281Z,6.3
2019-04-14T02:12:03.627Z,6.2
2019-04-14T02:14:28.343Z,6.2
2019-04-14T02:15:40.698Z,6.2
2019-04-14T02:16:53.054Z,7
2019-04-14T02:18:05.414Z,6.2
2019-04-14T02:19:17.076Z,6.1
2019-04-14T02:20:30.012Z,6.5
2019-04-14T02:22:54.845Z,6.5
2019-04-14T02:24:07.185Z,6.1
2019-04-14T02:25:19.548Z,5.5
2019-04-14T02:27:44.256Z,6.1
2019-04-14T02:28:56.613Z,6.2
2019-04-14T02:30:08.960Z,6.4
2019-04-14T02:31:21.336Z,5.9
2019-04-14T02:32:33.678Z,6.1
2019-04-14T02:33:46.036Z,6.2
2019-04-14T02:34:58.399Z,5.9
2019-04-14T02:37:23.106Z,5.9
2019-04-14T02:38:35.045Z,5.9
2019-04-14T02:39:47.809Z,6.1
2019-04-14T02:42:12.519Z,5.8
2019-04-14T02:43:24.087Z,6.1
2019-04-14T02:44:37.240Z,6
2019-04-14T02:47:01.946Z,6.1
2019-04-14T02:48:14.301Z,6.2
2019-04-14T02:49:26.661Z,5.3
2019-04-14T02:50:39.001Z,6.2
2019-04-14T02:51:51.374Z,5.7
2019-04-14T02:53:03.725Z,5.6
2019-04-14T02:54:16.091Z,5.8
2019-04-14T02:56:40.798Z,6.2
2019-04-14T02:57:53.153Z,5.9
2019-04-14T02:59:05.508Z,6
2019-04-14T03:01:30.239Z,6.1
2019-04-14T03:02:42.571Z,6
2019-04-14T03:06:19.645Z,5.9
2019-04-14T03:07:31.994Z,5.6
2019-04-14T03:08:44.035Z,5.8
2019-04-14T03:09:56.706Z,6.1
2019-04-14T03:11:09.063Z,6
2019-04-14T03:12:21.422Z,6
2019-04-14T03:13:33.778Z,6.3
2019-04-14T03:14:46.134Z,5.4
2019-04-14T03:15:58.487Z,5.6
2019-04-14T03:17:10.849Z,5.8
2019-04-14T03:18:23.207Z,5.8
2019-04-14T03:19:35.560Z,5.9
2019-04-14T03:20:47.926Z,5.8
2019-04-14T03:22:00.287Z,5.3
2019-04-14T03:23:12.624Z,5.9
2019-04-14T03:24:24.974Z,5.9
2019-04-14T03:25:37.347Z,5.2
2019-04-14T03:26:49.068Z,5.8
2019-04-14T03:29:14.404Z,5.6
2019-04-14T03:30:26.756Z,5.5
2019-04-14T03:31:39.139Z,5.6
2019-04-14T03:32:51.465Z,5.7
2019-04-14T03:34:03.082Z,5.7
2019-04-14T03:35:16.180Z,6
2019-04-14T03:36:28.569Z,5.6
2019-04-14T03:37:40.895Z,5.4
2019-04-14T03:40:05.060Z,5.4
2019-04-14T03:41:17.979Z,5.4
2019-04-14T03:42:30.313Z,5.4
2019-04-14T03:43:42.669Z,5.7
2019-04-14T03:44:55.028Z,5.6
2019-04-14T03:46:07.038Z,5.1
2019-04-14T03:47:19.752Z,5.5
2019-04-14T03:48:32.093Z,5.6
2019-04-14T03:49:44.454Z,5.4
2019-04-14T03:52:09.158Z,5.4
2019-04-14T03:54:33.871Z,5.5
2019-04-14T03:55:46.226Z,6
2019-04-14T03:56:58.058Z,5
2019-04-14T03:59:23.298Z,5.4
2019-04-14T04:00:35.656Z,5.2
2019-04-14T04:01:48.009Z,5.6
2019-04-14T04:03:00.364Z,5.4
2019-04-14T04:04:12.072Z,5.3
2019-04-14T04:05:25.084Z,5.5
2019-04-14T04:06:37.088Z,5.2
2019-04-14T04:07:49.787Z,5.5
2019-04-14T04:09:02.147Z,5.6
2019-04-14T04:10:14.505Z,5.3
2019-04-14T04:11:26.858Z,5.4
2019-04-14T04:12:39.216Z,5.7
2019-04-14T04:13:51.056Z,5
2019-04-14T04:15:03.932Z,5.8
2019-04-14T04:16:16.279Z,5.7
2019-04-14T04:18:40.994Z,5.2
2019-04-14T04:19:53.345Z,5.3
2019-04-14T04:21:05.701Z,5.9
2019-04-14T04:23:30.421Z,5.2
2019-04-14T04:24:42.773Z,5.5
2019-04-14T04:25:55.127Z,5.5
2019-04-14T04:28:19.844Z,5.1
2019-04-14T04:29:32.196Z,5.4
2019-04-14T04:30:44.552Z,5
2019-04-14T04:31:56.091Z,5.2
2019-04-14T04:33:09.028Z,5.3
2019-04-14T04:34:21.062Z,5.4
2019-04-14T04:35:33.974Z,5.2
2019-04-14T04:37:58.686Z,5.3
2019-04-14T04:39:11.295Z,5.1
2019-04-14T04:41:35.755Z,5.3
2019-04-14T04:42:48.115Z,4.8
2019-04-14T04:44:00.471Z,5.1
2019-04-14T04:45:12.886Z,4.8
2019-04-14T04:47:37.055Z,5.4
2019-04-14T04:48:49.088Z,4.9
2019-04-14T04:50:02.250Z,5.3
2019-04-14T04:51:14.603Z,5
2019-04-14T04:52:26.963Z,4.9
2019-04-14T04:53:39.308Z,4.8
2019-04-14T04:54:51.671Z,5.4
2019-04-14T04:57:16.378Z,4.7
2019-04-14T04:58:28.735Z,5.1
2019-04-14T04:59:41.094Z,5.4
2019-04-14T05:02:05.805Z,5
2019-04-14T05:03:18.165Z,4.9
2019-04-14T05:04:30.517Z,5.2
2019-04-14T05:05:42.878Z,4.5
2019-04-14T05:08:07.607Z,5.4
2019-04-14T05:09:19.094Z,4.8
2019-04-14T05:11:44.656Z,5.3
2019-04-14T05:12:57.005Z,5.2
2019-04-14T05:14:09.363Z,4.7
2019-04-14T05:16:34.076Z,4.9
2019-04-14T05:17:46.426Z,5
2019-04-14T05:18:58.802Z,5
2019-04-14T05:21:23.502Z,4.6
2019-04-14T05:22:35.855Z,4.8
2019-04-14T05:23:48.209Z,4.8
2019-04-14T05:25:00.569Z,5.1
2019-04-14T05:26:12.920Z,4.4
2019-04-14T05:27:25.282Z,4.6
2019-04-14T05:29:49.994Z,5
2019-04-14T05:31:02.362Z,4.9
2019-04-14T05:32:14.070Z,4.8
2019-04-14T05:33:27.005Z,5
2019-04-14T05:35:51.773Z,4.8
2019-04-14T05:37:04.137Z,4.3
2019-04-14T05:38:16.486Z,4.8
2019-04-14T05:39:28.842Z,4.5
2019-04-14T05:40:41.196Z,4.5
2019-04-14T05:41:53.558Z,4.8
2019-04-14T05:43:05.092Z,4.8
2019-04-14T05:44:18.264Z,4.7
2019-04-14T05:45:30.680Z,4.7
2019-04-14T05:46:42.975Z,5
2019-04-14T05:47:55.336Z,4.5
2019-04-14T05:49:07.690Z,4.7
2019-04-14T05:50:20.038Z,5.1
2019-04-14T05:51:32.397Z,4.5
2019-04-14T05:53:57.111Z,5.1
2019-04-14T05:56:21.843Z,4.6
2019-04-14T05:57:34.179Z,4.5
2019-04-14T05:58:46.537Z,4.6
2019-04-14T05:59:58.887Z,4.6
2019-04-14T06:01:11.025Z,4.3
2019-04-14T06:02:23.603Z,4.7
2019-04-14T06:03:35.953Z,5
2019-04-14T06:04:48.313Z,4.6
2019-04-14T06:06:00.682Z,5
2019-04-14T06:07:13.034Z,4.4
2019-04-14T06:09:37.740Z,4.9
2019-04-14T06:10:50.099Z,4.5
2019-04-14T06:12:02.460Z,4.8
2019-04-14T06:14:27.017Z,4.5
2019-04-14T06:15:39.526Z,4.1
2019-04-14T06:16:51.879Z,4.5
2019-04-14T06:19:16.596Z,4.7
2019-04-14T06:21:41.307Z,4.3
2019-04-14T06:22:53.665Z,4.1
2019-04-14T06:24:06.015Z,4.3
2019-04-14T06:25:18.372Z,4.5
2019-04-14T06:26:30.825Z,4.5
2019-04-14T06:28:55.468Z,4.5
2019-04-14T06:30:07.798Z,4.5
2019-04-14T06:31:20.159Z,4.3
2019-04-14T06:33:44.871Z,4.3
2019-04-14T06:34:57.226Z,4.4
2019-04-14T06:36:09.577Z,4.3
2019-04-14T06:37:21.929Z,4.3
2019-04-14T06:38:34.300Z,4.3
2019-04-14T06:39:46.651Z,4.4
2019-04-14T06:40:59.011Z,4.6
2019-04-14T06:43:23.719Z,4.3
2019-04-14T06:44:36.007Z,4.2
2019-04-14T06:45:48.454Z,4.3
2019-04-14T06:48:13.152Z,4.2
2019-04-14T06:49:25.498Z,4.2
2019-04-14T06:50:37.853Z,4.3
2019-04-14T06:53:02.564Z,4
2019-04-14T06:54:14.922Z,4
2019-04-14T06:55:27.275Z,4.1
2019-04-14T06:57:51.999Z,4.1
2019-04-14T06:59:04.350Z,4.5
2019-04-14T07:00:16.703Z,4.6
2019-04-14T07:02:41.418Z,4.3
2019-04-14T07:03:53.786Z,4.3
2019-04-14T07:07:30.844Z,3.8
2019-04-14T07:08:43.196Z,4
2019-04-14T07:09:55.557Z,3.9
2019-04-14T07:11:07.914Z,4.1
2019-04-14T07:12:20.271Z,4
2019-04-14T07:13:32.624Z,4.5
2019-04-14T07:14:45.004Z,4
2019-04-14T07:15:57.336Z,4.2
2019-04-14T07:17:09.692Z,4.4
2019-04-14T07:18:22.053Z,4
2019-04-14T07:19:34.406Z,4.2
2019-04-14T07:21:59.129Z,4.4
2019-04-14T07:23:11.472Z,4.5
2019-04-14T07:24:23.825Z,3.8
2019-04-14T07:28:00.905Z,4.1
2019-04-14T07:29:13.255Z,4.3
2019-04-14T07:30:25.609Z,4.1
2019-04-14T07:31:37.964Z,4.1
2019-04-14T07:32:50.321Z,4.2
2019-04-14T07:34:02.691Z,4.2
2019-04-14T07:36:27.003Z,3.9
2019-04-14T07:37:39.749Z,4.1
2019-04-14T07:38:52.096Z,3.9
2019-04-14T07:41:16.814Z,3.7
2019-04-14T07:42:29.176Z,4
2019-04-14T07:43:41.528Z,4
2019-04-14T07:46:06.244Z,4
2019-04-14T07:47:18.639Z,4
2019-04-14T07:48:30.960Z,4.3
2019-04-14T07:50:55.676Z,3.9
2019-04-14T07:52:08.015Z,3.7
2019-04-14T07:55:45.087Z,4.3
2019-04-14T07:58:09.805Z,4.1
2019-04-14T08:00:34.516Z,4.1
2019-04-14T08:01:46.949Z,3.9
2019-04-14T08:02:59.023Z,4
2019-04-14T08:05:23.940Z,4.1
2019-04-14T08:06:36.297Z,3.9
2019-04-14T08:07:48.653Z,3.8
2019-04-14T08:10:13.376Z,3.7
2019-04-14T08:11:25.072Z,4.2
2019-04-14T08:12:38.081Z,4
2019-04-14T08:15:02.805Z,4.3
2019-04-14T08:16:15.149Z,4.2
2019-04-14T08:17:27.507Z,3.8
2019-04-14T08:18:39.854Z,3.9
2019-04-14T08:19:52.211Z,3.8
2019-04-14T08:21:04.584Z,4.1
2019-04-14T08:22:16.924Z,4
2019-04-14T08:23:29.286Z,4
2019-04-14T08:24:41.658Z,3.9
2019-04-14T08:25:53.996Z,4.1
2019-04-14T08:27:06.353Z,4.1
2019-04-14T08:28:18.712Z,4.7
2019-04-14T08:29:31.062Z,3.7
2019-04-14T08:30:43.416Z,4
2019-04-14T08:31:55.779Z,4.2
2019-04-14T08:34:20.502Z,3.6
2019-04-14T08:35:32.844Z,4.1
2019-04-14T08:36:45.019Z,3.7
2019-04-14T08:37:57.563Z,4.2
2019-04-14T08:39:10.069Z,3.9
2019-04-14T08:40:22.422Z,3.9
2019-04-14T08:41:34.775Z,4.1
2019-04-14T08:42:47.134Z,4.2
2019-04-14T08:43:59.493Z,4
2019-04-14T08:45:11.849Z,4
2019-04-14T08:46:24.203Z,4
2019-04-14T08:48:48.994Z,3.7
2019-04-14T08:50:01.027Z,3.9
2019-04-14T08:51:13.623Z,3.9
2019-04-14T08:53:38.341Z,4
2019-04-14T08:54:50.697Z,4.2
2019-04-14T08:56:03.047Z,4.5
2019-04-14T08:58:27.761Z,4.1
2019-04-14T09:00:52.486Z,4.1
2019-04-14T09:02:04.083Z,4
2019-04-14T09:03:17.190Z,4.2
2019-04-14T09:04:29.577Z,4.3
2019-04-14T09:08:06.669Z,4.3
2019-04-14T09:09:18.988Z,4.1
2019-04-14T09:10:31.494Z,4
2019-04-14T09:12:56.037Z,4.6
2019-04-14T09:14:08.389Z,4.8
2019-04-14T09:15:20.744Z,4.5
2019-04-14T09:16:33.110Z,4.5
2019-04-14T09:17:45.461Z,4.9
2019-04-14T09:18:57.823Z,5.1
2019-04-14T09:20:10.173Z,5
2019-04-14T09:22:34.894Z,4.9
2019-04-14T09:23:47.248Z,5.8
2019-04-14T09:24:59.609Z,5.9
2019-04-14T09:27:24.316Z,5.6
2019-04-14T09:28:36.691Z,5.8
2019-04-14T09:32:13.741Z,5.7
2019-04-14T09:33:26.099Z,5.6
2019-04-14T09:34:38.045Z,6.4
2019-04-14T09:35:50.812Z,7.9
2019-04-14T09:37:03.001Z,10
2019-04-14T09:38:15.051Z,10.5
2019-04-14T09:39:27.884Z,11.5
2019-04-14T09:40:40.231Z,9.9
2019-04-14T09:41:52.588Z,10.1
2019-04-14T09:43:04.958Z,9.9
2019-04-14T09:44:17.296Z,9.3
2019-04-14T09:46:42.015Z,9.7
2019-04-14T09:47:54.371Z,10.5
2019-04-14T09:49:06.736Z,10.6
2019-04-14T09:50:19.087Z,10.4
2019-04-14T09:51:31.439Z,10.4
2019-04-14T09:52:43.796Z,11.3
2019-04-14T09:56:20.868Z,10.5
2019-04-14T09:57:33.217Z,10
2019-04-14T09:58:45.570Z,10.5
2019-04-14T10:01:10.295Z,10.7
2019-04-14T10:02:22.650Z,10
2019-04-14T10:03:34.997Z,10.3
2019-04-14T10:05:59.709Z,9.5
2019-04-14T10:07:12.074Z,9.8
2019-04-14T10:08:24.421Z,9
2019-04-14T10:10:49.140Z,9.8
2019-04-14T10:12:01.496Z,9.6
2019-04-14T10:13:13.858Z,9.2
2019-04-14T10:14:26.214Z,9.9
2019-04-14T10:15:38.628Z,9.4
2019-04-14T10:16:50.921Z,9.4
2019-04-14T10:18:03.270Z,9.3
2019-04-14T10:20:27.990Z,8.8
2019-04-14T10:21:40.345Z,9.6
2019-04-14T10:22:52.704Z,8.9
2019-04-14T10:24:05.196Z,9.4
2019-04-14T10:25:17.407Z,9.1
2019-04-14T10:26:29.771Z,8.4
2019-04-14T10:27:42.127Z,9.3
2019-04-14T10:30:06.843Z,8.9
2019-04-14T10:31:19.221Z,8.8
2019-04-14T10:32:31.578Z,9
2019-04-14T10:34:56.027Z,9.7
2019-04-14T10:36:08.614Z,9.8
2019-04-14T10:37:20.097Z,9.2
2019-04-14T10:39:45.690Z,9.3
2019-04-14T10:40:58.045Z,10.2
2019-04-14T10:44:35.116Z,8.5
2019-04-14T10:45:47.472Z,9.1
2019-04-14T10:48:12.180Z,8.9
2019-04-14T10:49:24.534Z,8.8
2019-04-14T10:50:36.895Z,8.7
2019-04-14T10:51:49.249Z,9.2
2019-04-14T10:54:13.963Z,8.9
2019-04-14T10:55:26.314Z,8.7
2019-04-14T10:56:38.675Z,9.5
2019-04-14T10:59:03.037Z,8.9
2019-04-14T11:00:15.729Z,8.9
2019-04-14T11:01:28.087Z,8.4
2019-04-14T11:03:52.795Z,9.1
2019-04-14T11:05:05.149Z,9
2019-04-14T11:06:17.050Z,8.7
2019-04-14T11:08:42.206Z,8.8
2019-04-14T11:09:54.565Z,9.1
2019-04-14T11:11:07.017Z,8.9
2019-04-14T11:12:19.272Z,8.5
2019-04-14T11:13:31.631Z,8.7
2019-04-14T11:14:43.981Z,9
2019-04-14T11:15:56.349Z,9
2019-04-14T11:18:21.004Z,8.2
2019-04-14T11:19:33.403Z,7.9
2019-04-14T11:20:45.075Z,8.7
2019-04-14T11:23:10.454Z,8.3
2019-04-14T11:24:22.831Z,8.9
2019-04-14T11:25:35.016Z,8
2019-04-14T11:27:59.876Z,8.8
2019-04-14T11:29:12.233Z,8.2
2019-04-14T11:31:36.093Z,8.9
2019-04-14T11:32:49.294Z,8.6
2019-04-14T11:34:01.652Z,8.3
2019-04-14T11:35:14.003Z,9.3
2019-04-14T11:36:26.362Z,8.7
2019-04-14T11:37:38.709Z,8.6
2019-04-14T11:38:51.063Z,9.5
2019-04-14T11:40:03.412Z,9.2
2019-04-14T11:41:15.791Z,9.4
2019-04-14T11:42:28.133Z,9.7
2019-04-14T11:44:52.832Z,9.9
2019-04-14T11:47:17.536Z,9.3
2019-04-14T11:48:29.892Z,9.8
2019-04-14T11:49:42.245Z,8.7
2019-04-14T11:52:06.956Z,9.4
2019-04-14T11:53:19.307Z,9.4
2019-04-14T11:55:44.022Z,9
2019-04-14T11:56:56.367Z,8.9
2019-04-14T11:59:21.084Z,9.6
2019-04-14T12:00:33.436Z,9.7
2019-04-14T12:01:45.788Z,10.2
2019-04-14T12:02:58.158Z,9.6
2019-04-14T12:04:10.494Z,10
2019-04-14T12:06:35.214Z,10
2019-04-14T12:07:47.555Z,10.6
2019-04-14T12:08:59.925Z,9.3
2019-04-14T12:10:12.265Z,9.8
2019-04-14T12:11:24.622Z,10.5
2019-04-14T12:12:36.983Z,10.3
2019-04-14T12:13:49.336Z,10
2019-04-14T12:16:14.056Z,10.2
2019-04-14T12:17:26.391Z,10.2
2019-04-14T12:18:38.744Z,9.8
2019-04-14T12:21:03.450Z,10.3
2019-04-14T12:22:15.808Z,10.3
2019-04-14T12:23:28.156Z,10.3
2019-04-14T12:25:52.870Z,10.5
2019-04-14T12:27:05.021Z,10.2
2019-04-14T12:28:17.580Z,10.1
2019-04-14T12:30:42.283Z,10.3
2019-04-14T12:31:54.665Z,9.6
2019-04-14T12:33:06.995Z,10
2019-04-14T12:34:19.347Z,10
2019-04-14T12:35:31.755Z,10.1
2019-04-14T12:36:44.005Z,9.4
2019-04-14T12:37:56.417Z,10.2
2019-04-14T12:39:08.076Z,10
2019-04-14T12:40:21.133Z,10
2019-04-14T12:41:33.468Z,10.3
2019-04-14T12:42:45.833Z,10.6
2019-04-14T12:45:10.534Z,10.1
2019-04-14T12:46:22.088Z,9.4
2019-04-14T12:47:35.250Z,10.2
2019-04-14T12:48:47.600Z,10.3
2019-04-14T12:49:59.950Z,10.4
2019-04-14T12:51:12.307Z,11.4
2019-04-14T12:52:24.660Z,11
2019-04-14T12:54:49.366Z,10.8
2019-04-14T12:56:01.718Z,10.1
2019-04-14T12:57:14.073Z,9.8
2019-04-14T12:58:26.425Z,9.9
2019-04-14T12:59:38.788Z,9.9
2019-04-14T13:00:51.140Z,9.7
2019-04-14T13:02:03.495Z,9.5
2019-04-14T13:03:15.849Z,8.8
2019-04-14T13:04:28.201Z,9.7
2019-04-14T13:05:40.552Z,9.4
2019-04-14T13:08:05.265Z,10.4
2019-04-14T13:09:17.621Z,10.9
2019-04-14T13:10:29.968Z,11.2
2019-04-14T13:11:42.332Z,11
2019-04-14T13:12:54.680Z,11.5
2019-04-14T13:14:07.034Z,11
2019-04-14T13:15:19.410Z,10.9
2019-04-14T13:16:31.744Z,11.1
2019-04-14T13:18:56.045Z,12.3
2019-04-14T13:20:08.815Z,11.1
2019-04-14T13:21:21.165Z,11.3
2019-04-14T13:23:45.864Z,10.1
2019-04-14T13:24:58.220Z,11.4
2019-04-14T13:26:10.576Z,11.2
2019-04-14T13:28:35.292Z,11.9
2019-04-14T13:29:47.006Z,12.2
2019-04-14T13:34:37.006Z,11.6
2019-04-14T13:35:49.406Z,11.4
2019-04-14T13:38:14.125Z,11.8
2019-04-14T13:39:26.485Z,12.3
2019-04-14T13:40:38.826Z,11.2
2019-04-14T13:41:51.177Z,12.5
2019-04-14T13:43:03.530Z,11.9
2019-04-14T13:44:15.884Z,12.3
2019-04-14T13:45:28.244Z,12.9
2019-04-14T13:47:52.947Z,12.6
2019-04-14T13:49:05.330Z,12.9
2019-04-14T13:50:17.658Z,12.4
2019-04-14T13:51:30.017Z,14.1
2019-04-14T13:52:42.363Z,12.8
2019-04-14T13:53:54.724Z,13.4
2019-04-14T13:57:31.790Z,13.2
2019-04-14T13:58:44.140Z,14.1
2019-04-14T13:59:56.498Z,14.4
2019-04-14T14:01:08.854Z,14.1
2019-04-14T14:02:21.205Z,13.8
2019-04-14T14:03:33.554Z,12.1
2019-04-14T14:04:45.009Z,14.5
2019-04-14T14:05:58.284Z,13
2019-04-14T14:07:10.616Z,13.2
2019-04-14T14:08:22.976Z,12
2019-04-14T14:09:35.318Z,12.8
2019-04-14T14:10:47.679Z,13.5
2019-04-14T14:12:00.030Z,13.3
2019-04-14T14:13:12.383Z,12.7
2019-04-14T14:14:24.743Z,12.9
2019-04-14T14:16:49.045Z,12.6
2019-04-14T14:18:01.806Z,14.5
2019-04-14T14:21:38.867Z,14.1
2019-04-14T14:22:51.222Z,14.7
2019-04-14T14:24:03.636Z,14.8
2019-04-14T14:26:28.283Z,13.8
2019-04-14T14:27:40.634Z,14
2019-04-14T14:28:53.012Z,14.5
2019-04-14T14:31:17.696Z,13.7
2019-04-14T14:32:30.047Z,14.9
2019-04-14T14:33:42.425Z,14.5
2019-04-14T14:34:54.766Z,14
2019-04-14T14:36:07.114Z,14
2019-04-14T14:37:19.466Z,14.7
2019-04-14T14:38:31.824Z,14.3
2019-04-14T14:39:44.184Z,14.1
2019-04-14T14:40:56.005Z,14.2
2019-04-14T14:42:08.008Z,14.7
2019-04-14T14:43:21.246Z,13.7
2019-04-14T14:45:45.964Z,14.1
2019-04-14T14:46:58.306Z,13.5
2019-04-14T14:48:10.661Z,13.5
2019-04-14T14:50:35.364Z,14.4
2019-04-14T14:51:47.713Z,14.3
2019-04-14T14:55:24.783Z,13.3
2019-04-14T14:56:37.139Z,13.6
2019-04-14T14:57:49.486Z,13.7
2019-04-14T15:00:14.019Z,13.3
2019-04-14T15:01:26.546Z,13.2
2019-04-14T15:02:40.882Z,13.5
2019-04-14T15:03:51.262Z,13.2
2019-04-14T15:05:03.646Z,14
2019-04-14T15:06:15.965Z,14.7
2019-04-14T15:07:28.322Z,13.8
2019-04-14T15:08:40.670Z,14.9
2019-04-14T15:09:53.034Z,13
2019-04-14T15:11:05.376Z,13.7
2019-04-14T15:12:17.729Z,14.1
2019-04-14T15:14:42.443Z,13.7
2019-04-14T15:15:54.804Z,13.2
2019-04-14T15:17:07.154Z,12.9
2019-04-14T15:21:56.573Z,14.1
2019-04-14T15:24:21.279Z,13.6
2019-04-14T15:25:33.628Z,12.9
2019-04-14T15:26:45.985Z,13
2019-04-14T15:29:10.696Z,12.6
2019-04-14T15:30:23.045Z,13.1
2019-04-14T15:31:35.406Z,13
2019-04-14T15:34:00.103Z,13.2
2019-04-14T15:35:12.458Z,12.7
2019-04-14T15:36:24.821Z,12.7
2019-04-14T15:37:37.173Z,12.6
2019-04-14T15:38:49.534Z,13.3
2019-04-14T15:40:01.882Z,12.2
2019-04-14T15:41:14.234Z,12
2019-04-14T15:44:51.294Z,12.5
2019-04-14T15:46:03.650Z,12.1
2019-04-14T15:48:28.361Z,11.6
2019-04-14T15:49:40.708Z,11.4
2019-04-14T15:50:53.325Z,11.9
2019-04-14T15:53:17.786Z,11.7
2019-04-14T15:54:30.134Z,11.3
2019-04-14T15:55:42.480Z,11.6
2019-04-14T15:58:07.185Z,11.5
2019-04-14T15:59:19.572Z,10.9
2019-04-14T16:00:31.951Z,11.1
2019-04-14T16:01:44.247Z,11.7
2019-04-14T16:02:56.637Z,10.7
2019-04-14T16:04:08.965Z,11.5
2019-04-14T16:05:21.320Z,10.7
2019-04-14T16:07:46.033Z,11.6
2019-04-14T16:10:10.747Z,10.2
2019-04-14T16:12:35.438Z,9.9
2019-04-14T16:13:47.795Z,10.6
2019-04-14T16:16:12.502Z,10.5
2019-04-14T16:17:24.858Z,10.8
2019-04-14T16:18:37.204Z,9.5
2019-04-14T16:19:49.572Z,10.2
2019-04-14T16:22:14.026Z,9.9
2019-04-14T16:23:26.642Z,9.8
2019-04-14T16:24:38.977Z,10.4
2019-04-14T16:27:03.699Z,9.5
2019-04-14T16:28:16.044Z,10
2019-04-14T16:29:28.394Z,9.7
2019-04-14T16:31:53.103Z,9.6
2019-04-14T16:33:05.455Z,9.6
2019-04-14T16:34:17.910Z,10
2019-04-14T16:36:42.519Z,9.7
2019-04-14T16:37:54.874Z,9.8
2019-04-14T16:39:07.225Z,9.8
2019-04-14T16:41:31.937Z,8.9
2019-04-14T16:42:44.290Z,9.1
2019-04-14T16:43:56.647Z,9.9
2019-04-14T16:45:09.001Z,8.8
2019-04-14T16:46:21.357Z,9
2019-04-14T16:47:33.708Z,9.2
2019-04-14T16:48:46.053Z,9
2019-04-14T16:49:58.426Z,9.3
2019-04-14T16:51:10.763Z,9.5
2019-04-14T16:52:23.121Z,9.9
2019-04-14T16:53:35.483Z,9.2
2019-04-14T16:56:00.194Z,9.6
2019-04-14T16:57:12.539Z,8.9
2019-04-14T16:58:24.889Z,9.2
2019-04-14T16:59:37.024Z,9.3
2019-04-14T17:00:49.061Z,9.3
2019-04-14T17:02:01.949Z,9
2019-04-14T17:05:39.001Z,9.5
2019-04-14T17:06:51.368Z,9.2
2019-04-14T17:08:03.749Z,9.4
2019-04-14T17:10:28.421Z,9.1
2019-04-14T17:11:40.780Z,8.8
2019-04-14T17:12:53.138Z,8.8
2019-04-14T17:15:17.844Z,9.5
2019-04-14T17:16:30.197Z,9.1
2019-04-14T17:17:42.558Z,9.2
2019-04-14T17:18:54.905Z,8.6
2019-04-14T17:20:07.264Z,9
2019-04-14T17:21:19.612Z,8.9
2019-04-14T17:22:31.964Z,8.6
2019-04-14T17:23:44.319Z,8.4
2019-04-14T17:24:56.679Z,8.4
2019-04-14T17:26:09.033Z,8.6
2019-04-14T17:27:21.539Z,8.6
2019-04-14T17:29:46.009Z,8.9
2019-04-14T17:30:58.445Z,8.2
2019-04-14T17:33:23.158Z,8.4
2019-04-14T17:34:35.510Z,8.6
2019-04-14T17:35:47.867Z,8.3
2019-04-14T17:37:00.337Z,8.5
2019-04-14T17:39:24.926Z,8.4
2019-04-14T17:40:37.284Z,8.6
2019-04-14T17:41:49.628Z,8.7
2019-04-14T17:44:14.345Z,8.4
2019-04-14T17:45:26.706Z,8.9
2019-04-14T17:46:39.057Z,8.3
2019-04-14T17:49:03.763Z,8.1
2019-04-14T17:51:28.463Z,8.3
2019-04-14T17:52:40.821Z,8
2019-04-14T17:53:53.171Z,8.4
2019-04-14T17:55:05.529Z,8.7
2019-04-14T17:56:17.884Z,8.1
2019-04-14T17:58:42.595Z,7.6
2019-04-14T17:59:55.051Z,8.1
2019-04-14T18:01:07.293Z,8.2
2019-04-14T18:04:44.362Z,9
2019-04-14T18:05:56.713Z,8.4
2019-04-14T18:07:09.071Z,8.7
2019-04-14T18:08:21.420Z,8.3
2019-04-14T18:09:33.777Z,8.4
2019-04-14T18:10:46.129Z,8.8
2019-04-14T18:15:35.550Z,9.4
2019-04-14T18:18:00.273Z,9
2019-04-14T18:19:12.610Z,8.7
2019-04-14T18:20:24.980Z,9.3
2019-04-14T18:22:49.666Z,8.8
2019-04-14T18:24:02.054Z,8.9
2019-04-14T18:25:14.448Z,8.8
2019-04-14T18:27:39.103Z,9.1
2019-04-14T18:28:51.449Z,9.4
2019-04-14T18:30:03.801Z,9
2019-04-14T18:31:16.148Z,9.2
2019-04-14T18:32:28.505Z,8.9
2019-04-14T18:33:40.863Z,9.7
2019-04-14T18:34:53.221Z,8.8
2019-04-14T18:37:17.092Z,9.4
2019-04-14T18:38:30.270Z,8.5
2019-04-14T18:39:42.632Z,9.4
2019-04-14T18:42:07.342Z,9.2
2019-04-14T18:43:19.693Z,8.8
2019-04-14T18:44:32.005Z,8.9
2019-04-14T18:46:56.760Z,9.7
2019-04-14T18:48:09.115Z,9.7
2019-04-14T18:49:21.048Z,9.5
2019-04-14T18:51:46.001Z,10.1
2019-04-14T18:52:58.533Z,8.9
2019-04-14T18:54:10.874Z,9
2019-04-14T18:56:35.592Z,8.9
2019-04-14T18:57:47.947Z,9.4
2019-04-14T19:01:25.008Z,9.8
2019-04-14T19:02:37.365Z,8.9
2019-04-14T19:03:49.712Z,8.8
2019-04-14T19:06:14.420Z,8.8
2019-04-14T19:08:39.013Z,9.3
2019-04-14T19:11:03.840Z,8.6
2019-04-14T19:12:16.190Z,8.3
2019-04-14T19:13:28.547Z,8.9
2019-04-14T19:15:53.251Z,9.1
2019-04-14T19:17:05.610Z,8.7
2019-04-14T19:18:17.958Z,8.8
2019-04-14T19:20:42.675Z,9.1
2019-04-14T19:21:55.026Z,8.8
2019-04-14T19:23:07.382Z,9
2019-04-14T19:24:19.731Z,8.1
2019-04-14T19:25:32.105Z,8.5
2019-04-14T19:26:44.444Z,8.5
2019-04-14T19:27:56.797Z,8.6
2019-04-14T19:29:09.156Z,8.4
2019-04-14T19:30:21.508Z,9
2019-04-14T19:31:33.862Z,8.4
2019-04-14T19:35:10.923Z,9.2
2019-04-14T19:36:23.274Z,8.9
2019-04-14T19:37:35.062Z,8.7
2019-04-14T19:40:00.339Z,9
2019-04-14T19:41:12.686Z,8.4
2019-04-14T19:42:25.045Z,9.3
2019-04-14T19:46:02.108Z,8.2
2019-04-14T19:47:14.457Z,8.4
2019-04-14T19:48:26.817Z,8.6
2019-04-14T19:49:39.016Z,8.5
2019-04-14T19:50:51.535Z,8.4
2019-04-14T19:52:03.088Z,8.6
2019-04-14T19:54:28.580Z,8.9
2019-04-14T19:55:40.960Z,8.9
2019-04-14T19:56:53.291Z,8.3
2019-04-14T19:59:17.998Z,8.4
2019-04-14T20:00:30.375Z,8.8
2019-04-14T20:01:42.710Z,8
2019-04-14T20:02:55.072Z,8
2019-04-14T20:04:07.423Z,7.9
2019-04-14T20:05:19.764Z,8.5
2019-04-14T20:06:32.123Z,8.2
2019-04-14T20:07:44.474Z,8.2
2019-04-14T20:08:56.845Z,8.5
2019-04-14T20:10:09.192Z,7.8
2019-04-14T20:11:21.542Z,8.7
2019-04-14T20:13:46.244Z,8.4
2019-04-14T20:14:58.600Z,7.8
2019-04-14T20:16:10.954Z,8.1
2019-04-14T20:17:23.312Z,8.5
2019-04-14T20:18:35.659Z,7.6
2019-04-14T20:19:48.017Z,7.7
2019-04-14T20:21:00.368Z,8
2019-04-14T20:23:25.075Z,7.8
2019-04-14T20:24:37.432Z,7.4
2019-04-14T20:25:49.789Z,7.9
2019-04-14T20:27:02.141Z,7.6
2019-04-14T20:28:14.541Z,7.3
2019-04-14T20:29:26.853Z,7.4
2019-04-14T20:30:39.241Z,7.3
2019-04-14T20:31:51.569Z,6.7
2019-04-14T20:33:03.947Z,6.9
2019-04-14T20:34:16.286Z,7
2019-04-14T20:35:28.637Z,7.3
2019-04-14T20:37:53.347Z,7.2
2019-04-14T20:39:05.708Z,7.1
2019-04-14T20:40:18.060Z,7.5
2019-04-14T20:42:42.767Z,6.7
2019-04-14T20:43:55.128Z,7.1
2019-04-14T20:45:07.477Z,7.1
2019-04-14T20:47:32.210Z,6.8
2019-04-14T20:48:44.566Z,6.7
2019-04-14T20:49:56.903Z,6.6